createdAt,value
2018-11-01T00:01:55.841Z,10.60
2018-11-01T00:04:26.834Z,10.60
2018-11-01T00:07:01.671Z,10.60
2018-11-01T00:09:42.205Z,10.50
2018-11-01T00:12:24.301Z,10.50
2018-11-01T00:15:03.809Z,10.60
2018-11-01T00:17:42.070Z,10.60
2018-11-01T00:20:23.982Z,10.60
2018-11-01T00:22:58.922Z,10.60
2018-11-01T00:25:36.555Z,10.60
2018-11-01T00:28:15.454Z,10.60
2018-11-01T00:31:02.754Z,10.70
2018-11-01T00:33:43.108Z,10.60
2018-11-01T00:36:24.216Z,10.60
2018-11-01T00:39:05.071Z,10.60
2018-11-01T00:41:48.924Z,10.70
2018-11-01T00:44:27.821Z,10.70
2018-11-01T00:47:06.522Z,10.70
2018-11-01T00:49:49.630Z,10.60
2018-11-01T00:52:19.524Z,10.60
2018-11-01T00:54:50.355Z,10.60
2018-11-01T01:00:24.509Z,10.50
2018-11-01T01:03:01.535Z,10.50
2018-11-01T01:05:42.366Z,10.40
2018-11-01T01:08:21.244Z,10.30
2018-11-01T01:10:55.328Z,10.30
2018-11-01T01:13:36.511Z,10.20
2018-11-01T01:16:16.262Z,10.30
2018-11-01T01:18:46.939Z,10.30
2018-11-01T01:21:23.016Z,10.30
2018-11-01T01:24:02.323Z,10.10
2018-11-01T01:26:32.414Z,10.10
2018-11-01T01:29:17.368Z,10.10
2018-11-01T01:31:54.507Z,10.00
2018-11-01T01:34:25.146Z,10.00
2018-11-01T01:36:56.477Z,10.00
2018-11-01T01:39:26.307Z,10.10
2018-11-01T01:42:01.148Z,10.00
2018-11-01T01:44:32.359Z,10.10
2018-11-01T01:47:05.793Z,10.00
2018-11-01T01:49:35.266Z,10.00
2018-11-01T01:57:19.279Z,9.90
2018-11-01T02:00:02.361Z,9.90
2018-11-01T02:02:34.911Z,9.80
2018-11-01T02:05:06.466Z,9.70
2018-11-01T02:07:37.690Z,9.70
2018-11-01T02:10:15.094Z,9.80
2018-11-01T02:13:00.213Z,9.70
2018-11-01T02:15:47.218Z,9.70
2018-11-01T02:18:24.746Z,9.60
2018-11-01T02:20:54.965Z,9.60
2018-11-01T02:23:24.153Z,9.50
2018-11-01T02:26:00.626Z,9.50
2018-11-01T02:28:41.047Z,9.50
2018-11-01T02:31:17.767Z,9.40
2018-11-01T02:33:58.552Z,9.40
2018-11-01T02:36:41.946Z,9.30
2018-11-01T02:39:22.177Z,9.30
2018-11-01T02:41:51.809Z,9.30
2018-11-01T02:44:21.587Z,9.30
2018-11-01T02:46:52.019Z,9.30
2018-11-01T02:49:24.354Z,9.30
2018-11-01T02:52:15.246Z,9.30
2018-11-01T02:54:46.802Z,9.20
2018-11-01T02:57:16.395Z,9.10
2018-11-01T02:59:47.287Z,9.10
2018-11-01T03:02:21.542Z,9.10
2018-11-01T03:04:54.424Z,9.10
2018-11-01T03:07:24.191Z,9.10
2018-11-01T03:09:54.686Z,9.00
2018-11-01T03:12:28.584Z,9.00
2018-11-01T03:15:22.013Z,9.00
2018-11-01T03:17:52.170Z,9.00
2018-11-01T03:20:32.509Z,9.00
2018-11-01T03:23:16.006Z,9.00
2018-11-01T03:25:51.289Z,8.90
2018-11-01T03:28:21.170Z,8.90
2018-11-01T03:30:51.097Z,8.90
2018-11-01T03:33:20.941Z,8.80
2018-11-01T03:35:54.420Z,8.80
2018-11-01T03:38:23.979Z,8.80
2018-11-01T03:40:53.777Z,8.80
2018-11-01T03:43:22.954Z,8.80
2018-11-01T03:45:53.014Z,8.80
2018-11-01T03:48:26.932Z,8.80
2018-11-01T03:51:04.927Z,8.80
2018-11-01T03:53:35.107Z,8.80
2018-11-01T03:56:04.700Z,8.80
2018-11-01T03:58:34.013Z,8.80
2018-11-01T04:01:03.279Z,8.80
2018-11-01T04:03:32.580Z,8.80
2018-11-01T04:06:01.866Z,8.80
2018-11-01T04:08:42.753Z,8.80
2018-11-01T04:11:12.527Z,8.80
2018-11-01T04:13:42.452Z,8.80
2018-11-01T04:16:12.142Z,8.80
2018-11-01T04:18:41.579Z,8.80
2018-11-01T04:21:16.308Z,8.80
2018-11-01T04:23:45.732Z,8.80
2018-11-01T04:26:15.653Z,8.70
2018-11-01T04:28:44.722Z,8.70
2018-11-01T04:34:15.536Z,8.70
2018-11-01T04:36:44.712Z,8.70
2018-11-01T04:39:20.085Z,8.70
2018-11-01T04:41:51.293Z,8.60
2018-11-01T04:44:20.469Z,8.60
2018-11-01T04:46:50.844Z,8.60
2018-11-01T04:49:19.879Z,8.60
2018-11-01T04:51:50.269Z,8.60
2018-11-01T04:54:21.246Z,8.50
2018-11-01T04:56:51.619Z,8.50
2018-11-01T04:59:20.672Z,8.50
2018-11-01T05:01:49.657Z,8.40
2018-11-01T05:04:25.044Z,8.40
2018-11-01T05:06:53.955Z,8.40
2018-11-01T05:09:23.851Z,8.40
2018-11-01T05:11:53.355Z,8.40
2018-11-01T05:14:22.610Z,8.30
2018-11-01T05:16:51.591Z,8.30
2018-11-01T05:19:22.181Z,8.20
2018-11-01T05:21:54.370Z,8.20
2018-11-01T05:24:28.714Z,8.20
2018-11-01T05:26:58.468Z,8.20
2018-11-01T05:29:27.579Z,8.20
2018-11-01T05:31:56.677Z,8.20
2018-11-01T05:34:25.831Z,8.20
2018-11-01T05:36:54.943Z,8.20
2018-11-01T05:39:25.164Z,8.20
2018-11-01T05:41:54.245Z,8.20
2018-11-01T05:44:23.209Z,8.20
2018-11-01T05:46:52.403Z,8.20
2018-11-01T05:49:22.565Z,8.30
2018-11-01T05:51:53.634Z,8.30
2018-11-01T05:54:45.579Z,8.30
2018-11-01T05:57:21.030Z,8.30
2018-11-01T05:59:50.388Z,8.30
2018-11-01T06:02:22.511Z,8.30
2018-11-01T06:04:51.926Z,8.30
2018-11-01T06:07:30.025Z,8.20
2018-11-01T06:10:01.218Z,8.20
2018-11-01T06:12:32.043Z,8.20
2018-11-01T06:15:01.151Z,8.20
2018-11-01T06:17:31.250Z,8.20
2018-11-01T06:20:00.521Z,8.20
2018-11-01T06:22:30.428Z,8.20
2018-11-01T06:24:59.514Z,8.20
2018-11-01T06:30:40.119Z,8.20
2018-11-01T06:33:09.166Z,8.30
2018-11-01T06:35:49.689Z,8.30
2018-11-01T06:38:18.586Z,8.30
2018-11-01T06:40:48.381Z,8.30
2018-11-01T06:43:21.671Z,8.30
2018-11-01T06:45:51.359Z,8.30
2018-11-01T06:48:24.232Z,8.30
2018-11-01T06:50:54.017Z,8.20
2018-11-01T06:53:26.852Z,8.30
2018-11-01T06:55:56.759Z,8.30
2018-11-01T06:58:25.777Z,8.30
2018-11-01T07:00:55.064Z,8.40
2018-11-01T07:03:25.778Z,8.30
2018-11-01T07:05:56.703Z,8.40
2018-11-01T07:08:43.157Z,8.40
2018-11-01T07:11:12.294Z,8.40
2018-11-01T07:13:44.040Z,8.40
2018-11-01T07:16:13.601Z,8.40
2018-11-01T07:18:42.749Z,8.40
2018-11-01T07:21:12.623Z,8.40
2018-11-01T07:23:43.691Z,8.40
2018-11-01T07:26:12.936Z,8.50
2018-11-01T07:28:44.811Z,8.40
2018-11-01T07:31:18.079Z,8.40
2018-11-01T07:33:47.198Z,8.50
2018-11-01T07:36:16.319Z,8.50
2018-11-01T07:38:46.827Z,8.60
2018-11-01T07:41:16.559Z,8.60
2018-11-01T07:43:46.295Z,8.60
2018-11-01T07:46:15.450Z,8.70
2018-11-01T07:48:44.518Z,8.70
2018-11-01T07:51:15.241Z,8.70
2018-11-01T07:53:46.318Z,8.70
2018-11-01T07:56:16.617Z,8.70
2018-11-01T07:58:52.689Z,8.70
2018-11-01T08:01:22.209Z,8.80
2018-11-01T08:03:52.559Z,8.80
2018-11-01T08:06:21.750Z,8.80
2018-11-01T08:08:51.318Z,8.80
2018-11-01T08:11:20.303Z,8.80
2018-11-01T08:13:49.480Z,8.90
2018-11-01T08:16:19.718Z,8.90
2018-11-01T08:18:49.298Z,9.00
2018-11-01T08:21:20.415Z,9.10
2018-11-01T08:23:49.688Z,9.10
2018-11-01T08:26:19.215Z,9.10
2018-11-01T08:28:49.076Z,9.10
2018-11-01T08:31:18.799Z,9.20
2018-11-01T08:33:51.226Z,9.20
2018-11-01T08:36:23.402Z,9.30
2018-11-01T08:38:53.804Z,9.40
2018-11-01T08:41:23.118Z,9.40
2018-11-01T08:43:53.160Z,9.50
2018-11-01T08:46:22.374Z,9.50
2018-11-01T08:48:52.480Z,9.50
2018-11-01T08:51:21.631Z,9.50
2018-11-01T08:53:51.359Z,9.60
2018-11-01T08:56:20.642Z,9.60
2018-11-01T08:58:50.743Z,9.60
2018-11-01T09:01:20.732Z,9.70
2018-11-01T09:03:49.655Z,9.80
2018-11-01T09:06:19.032Z,9.80
2018-11-01T09:08:48.660Z,9.80
2018-11-01T09:11:18.535Z,9.90
2018-11-01T09:13:48.342Z,9.90
2018-11-01T09:16:17.559Z,9.90
2018-11-01T09:18:46.507Z,9.80
2018-11-01T09:21:16.783Z,9.70
2018-11-01T09:23:45.865Z,9.70
2018-11-01T09:26:16.326Z,9.70
2018-11-01T09:28:46.185Z,9.70
2018-11-01T09:31:15.292Z,9.70
2018-11-01T09:33:45.430Z,9.70
2018-11-01T09:36:14.786Z,9.70
2018-11-01T09:38:45.227Z,9.70
2018-11-01T09:41:18.433Z,9.80
2018-11-01T09:43:48.088Z,9.90
2018-11-01T09:46:17.423Z,10.00
2018-11-01T09:48:47.571Z,10.10
2018-11-01T09:51:17.344Z,10.10
2018-11-01T09:53:48.443Z,10.20
2018-11-01T09:56:19.173Z,10.20
2018-11-01T09:58:48.805Z,10.20
2018-11-01T10:01:18.426Z,10.30
2018-11-01T10:03:48.172Z,10.40
2018-11-01T10:06:17.234Z,10.60
2018-11-01T10:08:46.644Z,10.70
2018-11-01T10:11:18.174Z,10.60
2018-11-01T10:13:54.116Z,10.50
2018-11-01T10:16:29.584Z,10.40
2018-11-01T10:19:07.139Z,10.40
2018-11-01T10:21:37.218Z,10.40
2018-11-01T10:24:06.699Z,10.40
2018-11-01T10:26:39.575Z,10.40
2018-11-01T10:29:08.957Z,10.40
2018-11-01T10:31:38.765Z,10.40
2018-11-01T10:34:08.057Z,10.50
2018-11-01T10:36:37.483Z,10.50
2018-11-01T10:39:09.305Z,10.60
2018-11-01T10:41:40.506Z,10.70
2018-11-01T10:44:10.708Z,10.80
2018-11-01T10:46:42.269Z,10.90
2018-11-01T10:49:11.576Z,10.90
2018-11-01T10:51:41.775Z,11.10
2018-11-01T10:54:12.276Z,10.90
2018-11-01T10:56:43.362Z,10.90
2018-11-01T10:59:12.811Z,10.90
2018-11-01T11:02:14.953Z,11.00
2018-11-01T11:04:45.243Z,11.00
2018-11-01T11:07:15.195Z,11.10
2018-11-01T11:09:44.732Z,11.10
2018-11-01T11:12:14.569Z,11.00
2018-11-01T11:14:44.215Z,11.10
2018-11-01T11:17:13.997Z,11.30
2018-11-01T11:19:44.930Z,11.30
2018-11-01T11:22:14.456Z,11.30
2018-11-01T11:24:43.593Z,11.30
2018-11-01T11:27:15.297Z,11.40
2018-11-01T11:29:44.351Z,11.30
2018-11-01T11:32:14.561Z,11.30
2018-11-01T11:34:44.020Z,11.20
2018-11-01T11:37:20.461Z,11.10
2018-11-01T11:39:50.280Z,11.20
2018-11-01T11:42:21.275Z,11.10
2018-11-01T11:44:50.691Z,11.10
2018-11-01T11:47:19.855Z,11.10
2018-11-01T11:49:49.236Z,11.00
2018-11-01T11:52:19.881Z,11.00
2018-11-01T11:54:49.235Z,11.00
2018-11-01T11:57:19.730Z,11.00
2018-11-01T11:59:49.817Z,10.90
2018-11-01T12:02:20.537Z,10.90
2018-11-01T12:04:50.648Z,10.90
2018-11-01T12:07:21.777Z,10.90
2018-11-01T12:09:52.347Z,10.90
2018-11-01T12:12:25.039Z,10.90
2018-11-01T12:14:54.749Z,10.80
2018-11-01T12:17:25.184Z,10.90
2018-11-01T12:19:55.484Z,10.90
2018-11-01T12:22:26.268Z,10.80
2018-11-01T12:24:56.205Z,10.80
2018-11-01T12:27:27.133Z,10.90
2018-11-01T12:29:56.738Z,10.90
2018-11-01T12:32:28.525Z,11.00
2018-11-01T12:34:58.814Z,11.00
2018-11-01T12:37:30.053Z,11.10
2018-11-01T12:40:15.539Z,11.10
2018-11-01T12:42:48.657Z,11.10
2018-11-01T12:45:17.809Z,11.10
2018-11-01T12:47:47.582Z,11.10
2018-11-01T12:50:18.833Z,11.10
2018-11-01T12:52:48.884Z,11.20
2018-11-01T12:55:20.752Z,11.20
2018-11-01T12:57:50.380Z,11.30
2018-11-01T13:00:34.790Z,11.20
2018-11-01T13:03:04.442Z,11.30
2018-11-01T13:05:53.974Z,11.30
2018-11-01T13:08:28.382Z,11.30
2018-11-01T13:11:13.981Z,11.30
2018-11-01T13:13:44.361Z,11.30
2018-11-01T13:16:22.340Z,11.10
2018-11-01T13:19:00.353Z,11.00
2018-11-01T13:21:30.721Z,10.90
2018-11-01T13:24:00.263Z,10.90
2018-11-01T13:26:46.693Z,10.90
2018-11-01T13:29:21.853Z,10.80
2018-11-01T13:31:53.012Z,10.80
2018-11-01T13:34:22.985Z,10.70
2018-11-01T13:36:52.062Z,10.60
2018-11-01T13:39:23.288Z,10.50
2018-11-01T13:41:53.400Z,10.50
2018-11-01T13:44:23.673Z,10.40
2018-11-01T13:46:55.150Z,10.40
2018-11-01T13:49:24.159Z,10.40
2018-11-01T13:51:55.136Z,10.40
2018-11-01T13:54:24.824Z,10.30
2018-11-01T13:56:55.289Z,10.30
2018-11-01T13:59:26.072Z,10.20
2018-11-01T14:01:57.804Z,10.20
2018-11-01T14:04:27.256Z,10.10
2018-11-01T14:06:58.387Z,10.00
2018-11-01T14:09:27.562Z,10.00
2018-11-01T14:11:57.274Z,9.90
2018-11-01T14:14:27.368Z,9.90
2018-11-01T14:16:58.158Z,9.80
2018-11-01T14:19:27.567Z,9.80
2018-11-01T14:21:58.780Z,9.70
2018-11-01T14:24:28.474Z,9.70
2018-11-01T14:26:58.795Z,9.70
2018-11-01T14:29:32.077Z,9.70
2018-11-01T14:32:03.520Z,9.60
2018-11-01T14:34:34.634Z,9.60
2018-11-01T14:37:06.580Z,9.60
2018-11-01T14:39:37.332Z,9.60
2018-11-01T14:42:07.207Z,9.60
2018-11-01T14:44:36.637Z,9.50
2018-11-01T14:47:48.633Z,9.50
2018-11-01T14:50:17.738Z,9.50
2018-11-01T14:52:52.541Z,9.40
2018-11-01T14:55:23.700Z,9.40
2018-11-01T14:57:54.435Z,9.40
2018-11-01T15:00:22.166Z,9.30
2018-11-01T15:02:52.189Z,9.30
2018-11-01T15:05:23.959Z,9.30
2018-11-01T15:07:53.703Z,9.30
2018-11-01T15:10:25.184Z,9.30
2018-11-01T15:12:56.489Z,9.30
2018-11-01T15:15:25.707Z,9.30
2018-11-01T15:17:55.637Z,9.30
2018-11-01T15:20:27.332Z,9.20
2018-11-01T15:22:57.194Z,9.20
2018-11-01T15:25:27.174Z,9.20
2018-11-01T15:27:57.700Z,9.20
2018-11-01T15:30:26.780Z,9.30
2018-11-01T15:32:56.885Z,9.30
2018-11-01T15:35:27.308Z,9.30
2018-11-01T15:37:59.451Z,9.30
2018-11-01T15:43:14.182Z,9.30
2018-11-01T15:45:44.295Z,9.30
2018-11-01T15:48:14.456Z,9.40
2018-11-01T15:50:45.135Z,9.40
2018-11-01T15:53:20.438Z,9.40
2018-11-01T15:55:51.187Z,9.40
2018-11-01T15:58:20.640Z,9.40
2018-11-01T16:00:50.457Z,9.40
2018-11-01T16:03:19.873Z,9.50
2018-11-01T16:05:51.059Z,9.50
2018-11-01T16:08:20.452Z,9.50
2018-11-01T16:10:50.709Z,9.60
2018-11-01T16:13:21.721Z,9.60
2018-11-01T16:15:56.711Z,9.60
2018-11-01T16:18:28.202Z,9.60
2018-11-01T16:21:04.213Z,9.60
2018-11-01T16:23:43.017Z,9.60
2018-11-01T16:26:17.364Z,9.60
2018-11-01T16:28:48.126Z,9.70
2018-11-01T16:31:21.096Z,9.70
2018-11-01T16:33:52.276Z,9.70
2018-11-01T16:36:30.066Z,9.70
2018-11-01T16:39:00.062Z,9.70
2018-11-01T16:41:29.744Z,9.70
2018-11-01T16:44:10.205Z,9.70
2018-11-01T16:46:45.079Z,9.70
2018-11-01T16:49:16.130Z,9.70
2018-11-01T16:51:46.573Z,9.70
2018-11-01T16:54:18.636Z,9.70
2018-11-01T16:56:48.321Z,9.80
2018-11-01T16:59:18.367Z,9.80
2018-11-01T17:01:47.950Z,9.90
2018-11-01T17:04:19.414Z,9.90
2018-11-01T17:06:51.125Z,10.10
2018-11-01T17:09:20.705Z,10.10
2018-11-01T17:11:53.845Z,10.10
2018-11-01T17:14:24.216Z,10.20
2018-11-01T17:16:57.461Z,10.20
2018-11-01T17:19:33.739Z,10.20
2018-11-01T17:22:13.808Z,10.10
2018-11-01T17:24:45.746Z,10.00
2018-11-01T17:27:16.174Z,10.00
2018-11-01T17:30:17.663Z,10.00
2018-11-01T17:32:54.816Z,10.00
2018-11-01T17:35:28.378Z,10.00
2018-11-01T17:38:01.083Z,10.00
2018-11-01T17:40:33.690Z,10.00
2018-11-01T17:43:05.501Z,9.90
2018-11-01T17:45:41.463Z,10.00
2018-11-01T17:48:20.254Z,10.00
2018-11-01T17:50:58.563Z,9.90
2018-11-01T17:53:33.081Z,9.90
2018-11-01T17:56:02.791Z,9.90
2018-11-01T18:01:23.492Z,9.70
2018-11-01T18:03:54.558Z,9.70
2018-11-01T18:06:24.113Z,9.70
2018-11-01T18:08:53.788Z,9.70
2018-11-01T18:11:23.735Z,9.80
2018-11-01T18:13:53.702Z,9.80
2018-11-01T18:16:22.829Z,9.80
2018-11-01T18:18:55.096Z,9.80
2018-11-01T18:21:29.828Z,9.80
2018-11-01T18:24:05.910Z,9.90
2018-11-01T18:26:38.296Z,9.90
2018-11-01T18:29:08.636Z,9.90
2018-11-01T18:31:46.363Z,10.00
2018-11-01T18:34:17.688Z,10.00
2018-11-01T18:36:47.567Z,10.00
2018-11-01T18:39:18.286Z,10.00
2018-11-01T18:41:53.770Z,10.00
2018-11-01T18:44:23.798Z,9.90
2018-11-01T18:46:53.192Z,10.00
2018-11-01T18:49:27.292Z,10.00
2018-11-01T18:52:11.093Z,10.10
2018-11-01T18:54:44.463Z,10.10
2018-11-01T18:57:16.773Z,10.20
2018-11-01T18:59:48.793Z,10.30
2018-11-01T19:02:20.391Z,10.30
2018-11-01T19:04:50.763Z,10.30
2018-11-01T19:07:22.869Z,10.30
2018-11-01T19:09:58.586Z,10.30
2018-11-01T19:12:34.100Z,10.30
2018-11-01T19:15:13.979Z,10.40
2018-11-01T19:17:44.841Z,10.40
2018-11-01T19:20:20.809Z,10.40
2018-11-01T19:22:52.605Z,10.40
2018-11-01T19:25:23.804Z,10.40
2018-11-01T19:28:00.656Z,10.40
2018-11-01T19:30:31.862Z,10.40
2018-11-01T19:33:09.734Z,10.40
2018-11-01T19:35:45.684Z,10.40
2018-11-01T19:38:22.824Z,10.40
2018-11-01T19:40:59.341Z,10.40
2018-11-01T19:43:34.038Z,10.40
2018-11-01T19:46:04.854Z,10.40
2018-11-01T19:48:47.109Z,10.40
2018-11-01T19:51:19.586Z,10.50
2018-11-01T19:53:54.113Z,10.40
2018-11-01T19:56:26.667Z,10.40
2018-11-01T19:59:05.917Z,10.40
2018-11-01T20:01:37.264Z,10.50
2018-11-01T20:04:11.155Z,10.50
2018-11-01T20:06:43.211Z,10.50
2018-11-01T20:09:13.903Z,10.60
2018-11-01T20:11:44.927Z,10.60
2018-11-01T20:14:18.395Z,10.60
2018-11-01T20:16:50.888Z,10.60
2018-11-01T20:19:24.672Z,10.70
2018-11-01T20:22:06.634Z,10.80
2018-11-01T20:24:49.608Z,10.80
2018-11-01T20:27:22.571Z,10.80
2018-11-01T20:30:01.197Z,10.80
2018-11-01T20:32:36.289Z,10.80
2018-11-01T20:35:12.363Z,10.90
2018-11-01T20:37:47.252Z,10.80
2018-11-01T20:40:19.244Z,10.80
2018-11-01T20:42:54.292Z,10.80
2018-11-01T20:45:27.851Z,10.70
2018-11-01T20:47:59.919Z,10.80
2018-11-01T20:50:33.334Z,10.80
2018-11-01T20:53:09.753Z,10.80
2018-11-01T20:55:43.992Z,10.90
2018-11-01T20:58:15.746Z,10.90
2018-11-01T21:00:48.012Z,10.80
2018-11-01T21:03:19.598Z,10.80
2018-11-01T21:05:51.314Z,10.70
2018-11-01T21:08:21.287Z,10.70
2018-11-01T21:10:52.690Z,10.70
2018-11-01T21:13:25.076Z,10.70
2018-11-01T21:15:55.392Z,10.80
2018-11-01T21:18:29.635Z,10.80
2018-11-01T21:21:02.648Z,10.70
2018-11-01T21:23:32.667Z,10.80
2018-11-01T21:26:02.175Z,10.90
2018-11-01T21:28:32.583Z,11.00
2018-11-01T21:31:04.341Z,11.10
2018-11-01T21:33:42.127Z,11.10
2018-11-01T21:36:20.093Z,11.20
2018-11-01T21:38:51.295Z,11.30
2018-11-01T21:41:21.420Z,11.40
2018-11-01T21:46:37.172Z,11.30
2018-11-01T21:49:08.206Z,11.30
2018-11-01T21:51:38.441Z,11.30
2018-11-01T21:54:19.225Z,11.30
2018-11-01T21:56:50.260Z,11.30
2018-11-01T21:59:19.811Z,11.40
2018-11-01T22:01:52.425Z,11.40
2018-11-01T22:04:24.624Z,11.40
2018-11-01T22:06:55.267Z,11.50
2018-11-01T22:09:26.492Z,11.40
2018-11-01T22:11:58.025Z,11.40
2018-11-01T22:14:28.705Z,11.50
2018-11-01T22:17:02.725Z,11.50
2018-11-01T22:19:35.364Z,11.60
2018-11-01T22:22:05.204Z,11.50
2018-11-01T22:24:35.243Z,11.60
2018-11-01T22:27:05.012Z,11.60
2018-11-01T22:29:37.386Z,11.80
2018-11-01T22:32:08.120Z,11.90
2018-11-01T22:34:41.742Z,11.90
2018-11-01T22:37:17.233Z,11.80
2018-11-01T22:39:58.882Z,11.80
2018-11-01T22:42:34.434Z,11.80
2018-11-01T22:45:10.837Z,11.80
2018-11-01T22:48:24.919Z,11.80
2018-11-01T22:51:12.010Z,11.80
2018-11-01T22:53:44.331Z,11.90
2018-11-01T22:56:14.749Z,11.80
2018-11-01T22:58:48.652Z,11.70
2018-11-01T23:01:28.250Z,11.70
2018-11-01T23:04:07.406Z,11.60
2018-11-01T23:06:41.137Z,11.60
2018-11-01T23:09:14.115Z,11.60
2018-11-01T23:11:47.276Z,11.50
2018-11-01T23:14:16.617Z,11.40
2018-11-01T23:16:47.131Z,11.40
2018-11-01T23:19:17.183Z,11.40
2018-11-01T23:21:47.719Z,11.30
2018-11-01T23:24:19.571Z,11.30
2018-11-01T23:26:59.095Z,11.30
2018-11-01T23:29:36.125Z,11.30
2018-11-01T23:32:07.181Z,11.30
2018-11-01T23:34:36.907Z,11.20
2018-11-01T23:37:12.703Z,11.20
2018-11-01T23:39:47.089Z,11.30
2018-11-01T23:42:22.337Z,11.20
2018-11-01T23:44:57.350Z,11.10
2018-11-01T23:47:32.402Z,11.10
2018-11-01T23:50:08.546Z,11.10
2018-11-01T23:52:39.174Z,11.10
2018-11-01T23:55:08.531Z,11.10
2018-11-01T23:57:38.189Z,11.00
